WetterOnline ( http://www.wetteronline.de )

Wetter aktuell Freising

Aktuelles Wetter: Weihenstephan-Dürnast (478m)

6-stündlich | Neueste Meldungen
Ortszeit Temperatur Wetter
Mo, 17.12. 19:00 1.9° C Sprühregen
Mo, 17.12. 13:00 -0.2° C bedeckt
Mo, 17.12. 7:00 -1.2° C Nebel
Mo, 17.12. 1:00 -1.6° C bedeckt
So, 16.12. 19:00 -1.6° C bedeckt
So, 16.12. 13:00 -3.1° C gefr. Sprühregen
So, 16.12. 7:00 -5.1° C bedeckt
So, 16.12. 1:00 -5.5° C wolkenlos
Ortszeit Temperatur Wetter
Mo, 17.12. 20:00 2.2° C leichter Regen
Mo, 17.12. 19:40 2.1° C leichter Regen
Mo, 17.12. 19:30 2.1° C bedeckt
Mo, 17.12. 19:20 2.1° C Sprühregen
Mo, 17.12. 19:10 1.9° C bewölkt
Mo, 17.12. 19:00 1.9° C Sprühregen
Mo, 17.12. 18:50 1.9° C Sprühregen
Mo, 17.12. 18:30 0.9° C leichter Regen
Mo, 17.12. 18:00 0.4° C bewölkt
Mo, 17.12. 17:30 1.8° C wolkig
Mo, 17.12. 17:00 1.6° C bewölkt
Ortszeit Relative Feuchte Sichtweite
Mo, 17.12. 19:00 95% 7 km
Mo, 17.12. 13:00 92% 9 km
Mo, 17.12. 7:00 100% 0.4 km
Mo, 17.12. 1:00 100% 5.0 km
So, 16.12. 19:00 98% 3.7 km
So, 16.12. 13:00 93% 2.7 km
So, 16.12. 7:00 89% 5.0 km
So, 16.12. 1:00 84% 8 km
Ortszeit Relative Feuchte Sichtweite
Mo, 17.12. 20:00 96% 5.0 km
Mo, 17.12. 19:40 95% -
Mo, 17.12. 19:30 95% 10 km
Mo, 17.12. 19:20 95% -
Mo, 17.12. 19:10 95% -
Mo, 17.12. 19:00 95% 7 km
Mo, 17.12. 18:50 95% -
Mo, 17.12. 18:30 97% 5.0 km
Mo, 17.12. 18:00 97% 2.8 km
Mo, 17.12. 17:30 95% 10 km
Mo, 17.12. 17:00 94% 8 km
Ortszeit Niederschlagsmenge Niederschlagsart
Mo, 17.12. 19:00 0.1 l/m2 in 12 Std. Regen
Mo, 17.12. 13:00 0.0 l/m2 in 6 Std. -
Mo, 17.12. 7:00 0.1 l/m2 in 12 Std. Sprühregen
Mo, 17.12. 1:00 0.1 l/m2 in 6 Std. Regen
So, 16.12. 19:00 0.3 l/m2 in 12 Std. Schnee, Regen
So, 16.12. 13:00 0.2 l/m2 in 6 Std. Schnee, Regen
So, 16.12. 7:00 0.0 l/m2 in 12 Std. -
So, 16.12. 1:00 0.0 l/m2 in 6 Std. -
Ortszeit Niederschlagsmenge Niederschlagsart
Mo, 17.12. 20:00 0.2 l/m2 in 1 Std. Regen
Mo, 17.12. 19:40 keine Meldung -
Mo, 17.12. 19:30 0.1 l/m2 in 1 Std. Schneeregen
Mo, 17.12. 19:20 keine Meldung -
Mo, 17.12. 19:10 keine Meldung -
Mo, 17.12. 19:00 0.1 l/m2 in 1 Std. Regen
Mo, 17.12. 18:50 keine Meldung -
Mo, 17.12. 18:30 0.1 l/m2 in 1 Std. -
Mo, 17.12. 18:00 0.0 l/m2 in 1 Std. -
Mo, 17.12. 17:30 0.0 l/m2 in 1 Std. -
Mo, 17.12. 17:00 0.0 l/m2 in 1 Std. -
Ortszeit Stärke Spitze Richtung
km/h Bft. km/h Grad Sektor
Mo, 17.12. 19:00 13 3 17 250° W
Mo, 17.12. 13:00 6 1 11 220° SW
Mo, 17.12. 7:00 0 0 7 - -
Mo, 17.12. 1:00 4 1 7 270° W
So, 16.12. 19:00 4 1 11 110° O
So, 16.12. 13:00 7 2 14 150° SO
So, 16.12. 7:00 9 2 24 110° O
So, 16.12. 1:00 7 2 22 90° O
Ortszeit Stärke Spitze Richtung
km/h Bft. km/h Grad Sektor
Mo, 17.12. 20:00 14 3 22 260° W
Mo, 17.12. 19:40 14 3 - 250° W
Mo, 17.12. 19:30 13 3 17 250° W
Mo, 17.12. 19:20 13 3 - 250° W
Mo, 17.12. 19:10 11 2 - 250° W
Mo, 17.12. 19:00 13 3 17 250° W
Mo, 17.12. 18:50 13 3 - 250° W
Mo, 17.12. 18:30 6 1 9 260° W
Mo, 17.12. 18:00 4 1 14 310° NW
Mo, 17.12. 17:30 9 2 13 250° W
Mo, 17.12. 17:00 11 2 14 240° SW
Ortszeit Untergrenze Bedeckung Gattung
total tief tief mittel hoch
Mo, 17.12. 19:00 780 m 8/8 8/8 - - -
Mo, 17.12. 13:00 1260 m 8/8 8/8 - - -
Mo, 17.12. 7:00 30 m 8/8 8/8 - - -
Mo, 17.12. 1:00 1200 m 8/8 8/8 - - -
So, 16.12. 19:00 1440 m 8/8 8/8 - - -
So, 16.12. 13:00 300 m 7/8 8/8 - - -
So, 16.12. 7:00 3300 m 8/8 8/8 - - -
So, 16.12. 1:00 8700 m 0/8 0/8 - - -
Ortszeit Bedeckungsgrad in Achtel und Wolkenuntergrenze
Mo, 17.12. 20:00 4(330m) 7(810m) 7(990m)
Mo, 17.12. 19:40 6(360m) 8(630m) 8(930m)
Mo, 17.12. 19:30 6(390m) 8(930m) 8(1320m)
Mo, 17.12. 19:20 6(390m) 8(930m) 8(1320m)
Mo, 17.12. 19:10 4(390m) 6(570m) 7(870m)
Mo, 17.12. 19:00 2(780m) 7(1080m) 8(2100m)
Mo, 17.12. 18:50 2(780m) 7(1080m) 8(2100m)
Mo, 17.12. 18:30 1(900m) 8(1140m) 8(1500m)
Mo, 17.12. 18:00 7(1110m) 8(6000m) 8(6900m)
Mo, 17.12. 17:30 4(1140m) 7(5700m) 7(6900m)
Mo, 17.12. 17:00 4(1260m) 8(5400m) 8(6300m)
Ortszeit Luftdruck NN (hPa) Tendenz (hPa in 3 Std.)
Mo, 17.12. 19:00 1028 + 1,9
Mo, 17.12. 13:00 1025 + 0,8
Mo, 17.12. 7:00 1021 + 2,1
Mo, 17.12. 1:00 1019 + 0,2
So, 16.12. 19:00 1018 + 1,2
So, 16.12. 13:00 1017 - 0,5
So, 16.12. 7:00 1018 - 1,3
So, 16.12. 1:00 1022 - 2,2
Ortszeit Luftdruck NN (hPa) Tendenz (hPa in 3 Std.)
Mo, 17.12. 20:00 1029 + 2,0
Mo, 17.12. 19:40 1029 keine Meldung
Mo, 17.12. 19:30 1028 + 2,0
Mo, 17.12. 19:20 1028 keine Meldung
Mo, 17.12. 19:10 1028 keine Meldung
Mo, 17.12. 19:00 1028 + 1,9
Mo, 17.12. 18:50 1028 keine Meldung
Mo, 17.12. 18:30 1028 + 1,9
Mo, 17.12. 18:00 1028 + 2,1
Mo, 17.12. 17:30 1027 + 1,9
Mo, 17.12. 17:00 1027 + 1,8
Ortszeit Schneehöhe (cm)
Mo, 17.12. 19:00 0
Mo, 17.12. 13:00 0
Mo, 17.12. 7:00 0
Mo, 17.12. 1:00 0
So, 16.12. 19:00 0
So, 16.12. 13:00 1
So, 16.12. 7:00 0
So, 16.12. 1:00 0
Ortszeit Schneehöhe (cm)
Mo, 17.12. 20:00 0
Mo, 17.12. 19:40 0
Mo, 17.12. 19:30 0
Mo, 17.12. 19:20 0
Mo, 17.12. 19:10 0
Mo, 17.12. 19:00 0
Mo, 17.12. 18:50 0
Mo, 17.12. 18:30 0
Mo, 17.12. 18:00 0
Mo, 17.12. 17:30 0
Mo, 17.12. 17:00 0
Link zu dieser Seite / Seite empfehlen

Das Wetter in ...